createdAt,value
2022-07-29T00:00:11.872Z,53.63
2022-07-29T00:03:36.289Z,53.75
2022-07-29T00:06:57.222Z,54.02
2022-07-29T00:10:33.995Z,54.01
2022-07-29T00:14:07.078Z,54.32
2022-07-29T00:21:00.825Z,54.55
2022-07-29T00:24:35.070Z,54.64
2022-07-29T00:27:44.194Z,54.75
2022-07-29T00:30:51.108Z,54.98
2022-07-29T00:38:09.495Z,55.25
2022-07-29T00:41:40.260Z,55.36
2022-07-29T01:18:48.019Z,55.80
2022-07-29T01:22:14.662Z,55.77
2022-07-29T01:25:21.453Z,55.90
2022-07-29T01:28:31.690Z,55.88
2022-07-29T01:31:32.209Z,56.05
2022-07-29T01:35:08.750Z,56.03
2022-07-29T01:42:31.028Z,55.78
2022-07-29T01:45:22.972Z,56.00
2022-07-29T01:48:51.068Z,56.06
2022-07-29T01:51:40.649Z,56.24
2022-07-29T01:54:28.309Z,56.37
2022-07-29T01:57:15.447Z,56.34
2022-07-29T02:00:33.615Z,56.26
2022-07-29T02:03:34.155Z,56.32
2022-07-29T02:07:02.580Z,56.42
2022-07-29T02:09:50.935Z,56.71
2022-07-29T02:12:37.295Z,57.12
2022-07-29T02:15:45.024Z,57.18
2022-07-29T02:18:47.042Z,57.33
2022-07-29T02:25:58.310Z,57.47
2022-07-29T02:29:30.685Z,57.57
2022-07-29T02:33:06.092Z,57.53
2022-07-29T02:36:30.110Z,57.62
2022-07-29T02:43:59.309Z,57.85
2022-07-29T02:47:59.690Z,57.82
2022-07-29T02:51:55.101Z,57.88
2022-07-29T02:55:59.179Z,57.72
2022-07-29T03:14:11.703Z,58.35
2022-07-29T03:17:31.288Z,58.47
2022-07-29T03:31:53.841Z,58.99
2022-07-29T03:42:43.168Z,59.20
2022-07-29T03:45:47.119Z,59.30
2022-07-29T03:48:26.851Z,59.26
2022-07-29T03:50:55.067Z,59.38
2022-07-29T03:53:36.147Z,59.21
2022-07-29T03:56:18.080Z,59.46
2022-07-29T03:58:57.564Z,59.68
2022-07-29T04:01:29.919Z,59.54
2022-07-29T04:04:21.665Z,59.55
2022-07-29T04:06:59.716Z,59.64
2022-07-29T04:10:03.455Z,59.78
2022-07-29T04:13:10.914Z,59.85
2022-07-29T04:15:41.995Z,59.95
2022-07-29T04:18:19.747Z,59.88
2022-07-29T04:21:01.596Z,59.80
2022-07-29T04:23:53.332Z,59.83
2022-07-29T04:26:42.639Z,59.87
2022-07-29T04:29:20.919Z,59.79
2022-07-29T04:31:53.189Z,59.84
2022-07-29T04:34:29.837Z,59.96
2022-07-29T04:37:27.509Z,59.85
2022-07-29T04:40:29.030Z,59.89
2022-07-29T04:43:16.490Z,59.96
2022-07-29T04:46:35.540Z,59.93
2022-07-29T04:49:10.191Z,59.92
2022-07-29T04:51:43.989Z,60.04
2022-07-29T04:54:14.587Z,59.77
2022-07-29T04:56:47.099Z,60.09
2022-07-29T04:59:17.036Z,59.95
2022-07-29T05:01:50.632Z,59.86
2022-07-29T05:04:22.389Z,59.53
2022-07-29T05:07:02.493Z,59.65
2022-07-29T05:09:31.145Z,59.38
2022-07-29T05:11:59.285Z,59.50
2022-07-29T05:14:27.757Z,59.52
2022-07-29T05:16:57.783Z,59.33
2022-07-29T05:19:26.280Z,59.34
2022-07-29T05:21:55.270Z,59.18
2022-07-29T05:24:22.880Z,59.27
2022-07-29T05:26:50.830Z,59.04
2022-07-29T05:29:43.242Z,58.85
2022-07-29T05:32:07.764Z,58.72
2022-07-29T05:34:37.005Z,58.77
2022-07-29T05:37:18.481Z,58.84
2022-07-29T05:39:50.708Z,58.43
2022-07-29T05:42:25.966Z,58.42
2022-07-29T05:44:55.542Z,58.18
2022-07-29T05:47:25.438Z,58.19
2022-07-29T05:49:54.797Z,58.45
2022-07-29T05:52:23.341Z,58.30
2022-07-29T05:54:52.891Z,58.01
2022-07-29T05:57:23.740Z,58.13
2022-07-29T05:59:53.137Z,57.87
2022-07-29T06:02:21.700Z,57.89
2022-07-29T06:04:51.783Z,57.71
2022-07-29T06:07:21.588Z,57.69
2022-07-29T06:09:49.832Z,57.79
2022-07-29T06:12:19.977Z,57.54
2022-07-29T06:14:54.108Z,57.41
2022-07-29T06:17:22.946Z,57.58
2022-07-29T06:19:52.281Z,57.16
2022-07-29T06:22:21.623Z,56.98
2022-07-29T06:24:53.044Z,57.00
2022-07-29T06:27:24.141Z,56.91
2022-07-29T06:29:53.213Z,56.74
2022-07-29T06:32:22.813Z,56.72
2022-07-29T06:35:11.857Z,56.30
2022-07-29T06:37:44.454Z,56.42
2022-07-29T06:40:33.211Z,56.47
2022-07-29T06:43:02.813Z,56.25
2022-07-29T06:45:30.978Z,56.32
2022-07-29T06:47:59.700Z,56.33
2022-07-29T06:50:29.870Z,56.27
2022-07-29T06:52:59.406Z,56.11
2022-07-29T06:55:27.394Z,55.85
2022-07-29T06:57:56.581Z,55.68
2022-07-29T07:00:24.478Z,55.97
2022-07-29T07:02:56.121Z,55.58
2022-07-29T07:05:26.021Z,54.99
2022-07-29T07:07:57.551Z,54.89
2022-07-29T07:10:28.784Z,54.80
2022-07-29T07:12:58.172Z,54.94
2022-07-29T07:15:39.310Z,54.78
2022-07-29T07:18:08.867Z,55.17
2022-07-29T07:20:38.228Z,54.96
2022-07-29T07:23:07.278Z,55.03
2022-07-29T07:25:35.767Z,54.78
2022-07-29T07:28:04.980Z,54.67
2022-07-29T07:30:33.855Z,54.46
2022-07-29T07:33:01.977Z,54.08
2022-07-29T07:35:30.036Z,54.00
2022-07-29T07:38:00.667Z,53.73
2022-07-29T07:40:30.149Z,52.61
2022-07-29T07:42:58.721Z,51.17
2022-07-29T07:45:29.928Z,49.76
2022-07-29T07:47:59.569Z,48.92
2022-07-29T07:50:29.840Z,48.43
2022-07-29T07:52:58.532Z,48.02
2022-07-29T07:55:28.639Z,48.25
2022-07-29T07:57:59.442Z,46.86
2022-07-29T08:00:29.131Z,45.92
2022-07-29T08:02:57.909Z,45.77
2022-07-29T08:05:26.519Z,45.86
2022-07-29T08:07:59.888Z,45.22
2022-07-29T08:10:47.989Z,45.26
2022-07-29T08:13:38.089Z,44.56
2022-07-29T08:16:23.106Z,44.98
2022-07-29T08:18:51.108Z,44.32
2022-07-29T08:21:22.361Z,43.24
2022-07-29T08:24:40.654Z,42.86
2022-07-29T08:28:13.047Z,42.26
2022-07-29T08:34:31.999Z,40.13
2022-07-29T08:37:04.006Z,40.19
2022-07-29T08:39:39.758Z,39.70
2022-07-29T08:42:11.895Z,38.97
2022-07-29T08:44:40.751Z,39.41
2022-07-29T08:47:10.573Z,38.48
2022-07-29T08:49:40.828Z,38.13
2022-07-29T08:52:12.661Z,36.69
2022-07-29T08:54:44.383Z,36.63
2022-07-29T08:57:19.251Z,36.05
2022-07-29T08:59:51.307Z,35.80
2022-07-29T09:02:27.559Z,36.10
2022-07-29T09:09:15.804Z,34.43
2022-07-29T09:21:35.293Z,34.12
2022-07-29T09:24:58.770Z,33.28
2022-07-29T09:28:27.770Z,32.21
2022-07-29T09:31:36.755Z,31.85
2022-07-29T09:34:15.741Z,31.98
2022-07-29T09:36:56.352Z,31.80
2022-07-29T09:39:38.813Z,31.24
2022-07-29T09:42:12.432Z,31.45
2022-07-29T09:45:13.971Z,31.59
2022-07-29T09:48:08.211Z,31.59
2022-07-29T09:50:53.334Z,31.60
2022-07-29T09:53:39.771Z,31.33
2022-07-29T09:56:19.890Z,31.60
2022-07-29T09:59:09.832Z,31.53
2022-07-29T10:01:45.870Z,31.41
2022-07-29T10:04:20.599Z,31.59
2022-07-29T10:07:09.973Z,30.55
2022-07-29T10:09:55.660Z,30.60
2022-07-29T10:12:26.275Z,30.13
2022-07-29T10:15:03.396Z,30.06
2022-07-29T10:17:37.037Z,30.27
2022-07-29T10:20:40.044Z,29.86
2022-07-29T10:23:14.207Z,30.21
2022-07-29T10:25:46.567Z,30.43
2022-07-29T10:28:36.076Z,29.85
2022-07-29T10:31:09.693Z,29.71
2022-07-29T10:34:24.301Z,29.97
2022-07-29T10:37:37.778Z,30.08
2022-07-29T10:41:00.156Z,29.69
2022-07-29T10:43:42.546Z,30.05
2022-07-29T10:46:18.151Z,29.92
2022-07-29T10:49:30.313Z,29.18
2022-07-29T10:57:25.771Z,29.43
2022-07-29T11:00:48.047Z,29.58
2022-07-29T11:04:05.643Z,29.63
2022-07-29T11:07:05.426Z,29.43
2022-07-29T11:10:48.757Z,29.42
2022-07-29T11:19:09.333Z,29.30
2022-07-29T11:26:19.417Z,29.35
2022-07-29T11:28:56.444Z,29.18
2022-07-29T11:31:49.366Z,29.34
2022-07-29T11:34:31.046Z,29.13
2022-07-29T11:37:28.893Z,29.50
2022-07-29T11:40:19.638Z,29.49
2022-07-29T11:42:57.328Z,29.48
2022-07-29T11:45:43.266Z,29.56
2022-07-29T11:48:29.316Z,29.41
2022-07-29T11:54:02.592Z,29.51
2022-07-29T11:56:36.989Z,29.62
2022-07-29T11:59:11.297Z,29.47
2022-07-29T12:02:33.009Z,29.05
2022-07-29T12:05:00.780Z,29.04
2022-07-29T12:07:46.017Z,28.99
2022-07-29T12:16:35.816Z,28.99
2022-07-29T12:19:24.838Z,29.65
2022-07-29T12:21:59.663Z,29.38
2022-07-29T12:25:02.336Z,29.26
2022-07-29T12:28:40.535Z,29.43
2022-07-29T12:32:24.103Z,29.72
2022-07-29T12:34:53.379Z,29.53
2022-07-29T12:37:54.821Z,29.17
2022-07-29T12:40:26.561Z,29.29
2022-07-29T12:43:14.467Z,29.53
2022-07-29T12:45:51.674Z,29.81
2022-07-29T12:48:41.726Z,29.75
2022-07-29T12:51:12.489Z,29.52
2022-07-29T12:54:03.053Z,29.65
2022-07-29T12:56:42.678Z,29.77
2022-07-29T12:59:21.425Z,29.51
2022-07-29T13:01:54.092Z,29.77
2022-07-29T13:04:34.901Z,29.87
2022-07-29T13:07:08.464Z,29.85
2022-07-29T13:09:42.811Z,29.27
2022-07-29T13:12:14.415Z,29.34
2022-07-29T13:14:47.537Z,29.22
2022-07-29T13:17:21.600Z,28.69
2022-07-29T13:19:51.895Z,28.76
2022-07-29T13:22:24.193Z,29.20
2022-07-29T13:25:34.883Z,28.81
2022-07-29T13:28:06.126Z,28.95
2022-07-29T13:30:36.625Z,28.63
2022-07-29T13:33:14.873Z,28.71
2022-07-29T13:35:43.851Z,28.83
2022-07-29T13:38:41.049Z,29.20
2022-07-29T13:41:12.464Z,28.73
2022-07-29T13:43:50.089Z,28.13
2022-07-29T13:46:22.545Z,28.16
2022-07-29T13:48:54.755Z,27.91
2022-07-29T13:51:28.442Z,27.91
2022-07-29T13:54:00.884Z,28.19
2022-07-29T13:56:30.404Z,28.34
2022-07-29T13:59:02.694Z,28.53
2022-07-29T14:01:31.596Z,28.32
2022-07-29T14:03:59.798Z,28.18
2022-07-29T14:06:30.924Z,27.89
2022-07-29T14:09:03.517Z,27.84
2022-07-29T14:11:34.083Z,28.03
2022-07-29T14:14:02.041Z,27.92
2022-07-29T14:16:36.237Z,27.63
2022-07-29T14:19:08.559Z,28.09
2022-07-29T14:21:37.669Z,28.18
2022-07-29T14:24:14.160Z,28.02
2022-07-29T14:26:47.122Z,28.11
2022-07-29T14:29:15.325Z,27.84
2022-07-29T14:31:44.550Z,28.11
2022-07-29T14:34:14.105Z,28.17
2022-07-29T14:36:42.271Z,28.11
2022-07-29T14:39:16.376Z,27.87
2022-07-29T14:41:45.599Z,28.08
2022-07-29T14:44:13.209Z,27.76
2022-07-29T14:46:41.913Z,27.44
2022-07-29T14:49:16.968Z,27.54
2022-07-29T14:51:44.818Z,27.51
2022-07-29T14:54:13.606Z,27.34
2022-07-29T14:56:46.512Z,27.45
2022-07-29T14:59:19.429Z,27.52
2022-07-29T15:01:48.948Z,27.60
2022-07-29T15:04:17.579Z,27.30
2022-07-29T15:06:46.685Z,27.42
2022-07-29T15:09:16.832Z,27.53
2022-07-29T15:11:48.126Z,27.47
2022-07-29T15:14:17.684Z,27.48
2022-07-29T15:16:48.298Z,27.81
2022-07-29T15:19:16.948Z,27.79
2022-07-29T15:21:48.470Z,27.98
2022-07-29T15:24:20.749Z,27.90
2022-07-29T15:26:49.775Z,28.06
2022-07-29T15:29:18.125Z,28.01
2022-07-29T15:31:47.739Z,27.86
2022-07-29T15:34:19.077Z,27.79
2022-07-29T15:36:52.566Z,27.87
2022-07-29T15:39:25.404Z,27.78
2022-07-29T15:41:57.778Z,27.80
2022-07-29T15:44:27.209Z,27.59
2022-07-29T15:47:10.097Z,27.75
2022-07-29T15:49:48.027Z,27.66
2022-07-29T15:52:25.517Z,27.20
2022-07-29T15:54:57.029Z,27.09
2022-07-29T15:57:28.965Z,27.24
2022-07-29T15:59:57.111Z,27.59
2022-07-29T16:02:25.139Z,27.50
2022-07-29T16:04:53.859Z,27.32
2022-07-29T16:07:21.891Z,27.12
2022-07-29T16:09:53.408Z,27.12
2022-07-29T16:12:22.693Z,27.05
2022-07-29T16:14:52.600Z,27.15
2022-07-29T16:17:21.570Z,27.10
2022-07-29T16:19:50.083Z,27.17
2022-07-29T16:22:21.587Z,27.06
2022-07-29T16:24:51.885Z,26.67
2022-07-29T16:27:25.168Z,27.29
2022-07-29T16:29:55.800Z,27.01
2022-07-29T16:32:25.564Z,27.04
2022-07-29T16:34:54.090Z,27.25
2022-07-29T16:37:22.126Z,27.36
2022-07-29T16:39:51.322Z,27.35
2022-07-29T16:42:36.974Z,27.10
2022-07-29T16:45:07.708Z,27.30
2022-07-29T16:47:36.336Z,27.61
2022-07-29T16:50:35.306Z,27.91
2022-07-29T16:53:06.637Z,27.55
2022-07-29T16:55:34.739Z,27.90
2022-07-29T16:58:06.294Z,28.01
2022-07-29T17:00:34.632Z,28.00
2022-07-29T17:03:06.995Z,28.14
2022-07-29T17:05:53.728Z,27.80
2022-07-29T17:08:23.193Z,28.00
2022-07-29T17:10:51.983Z,27.98
2022-07-29T17:13:21.505Z,27.95
2022-07-29T17:15:58.778Z,28.13
2022-07-29T17:18:32.923Z,28.26
2022-07-29T17:21:03.071Z,28.29
2022-07-29T17:23:31.965Z,28.33
2022-07-29T17:26:03.188Z,28.25
2022-07-29T17:28:35.673Z,28.40
2022-07-29T17:31:07.834Z,28.42
2022-07-29T17:33:37.398Z,28.56
2022-07-29T17:36:26.582Z,28.64
2022-07-29T17:38:57.502Z,28.81
2022-07-29T17:41:26.332Z,29.03
2022-07-29T17:44:03.847Z,29.15
2022-07-29T17:46:57.726Z,29.14
2022-07-29T17:49:27.889Z,29.30
2022-07-29T17:52:00.444Z,29.35
2022-07-29T17:54:29.360Z,29.54
2022-07-29T17:56:58.070Z,29.45
2022-07-29T17:59:26.098Z,29.79
2022-07-29T18:01:57.337Z,29.94
2022-07-29T18:04:28.408Z,30.02
2022-07-29T18:06:59.444Z,30.36
2022-07-29T18:09:29.701Z,30.55
2022-07-29T18:12:00.404Z,30.60
2022-07-29T18:14:31.033Z,30.57
2022-07-29T18:17:00.343Z,30.54
2022-07-29T18:19:30.349Z,30.63
2022-07-29T18:22:05.273Z,30.74
2022-07-29T18:24:35.471Z,30.81
2022-07-29T18:27:05.302Z,30.95
2022-07-29T18:29:34.445Z,31.07
2022-07-29T18:32:05.556Z,31.28
2022-07-29T18:34:33.606Z,31.22
2022-07-29T18:37:02.109Z,31.52
2022-07-29T18:40:46.116Z,31.51
2022-07-29T18:43:15.914Z,31.74
2022-07-29T18:45:45.562Z,31.80
2022-07-29T18:48:14.327Z,31.96
2022-07-29T18:50:43.108Z,32.10
2022-07-29T18:53:12.424Z,32.21
2022-07-29T18:55:43.068Z,32.12
2022-07-29T18:58:17.188Z,32.35
2022-07-29T19:00:44.769Z,32.40
2022-07-29T19:03:25.468Z,32.54
2022-07-29T19:05:54.540Z,32.75
2022-07-29T19:08:29.188Z,32.81
2022-07-29T19:11:05.049Z,32.97
2022-07-29T19:13:34.222Z,33.04
2022-07-29T19:16:27.515Z,33.22
2022-07-29T19:18:56.478Z,33.32
2022-07-29T19:21:25.823Z,33.52
2022-07-29T19:24:02.105Z,33.46
2022-07-29T19:26:43.729Z,33.61
2022-07-29T19:29:21.601Z,33.69
2022-07-29T19:32:05.129Z,33.79
2022-07-29T19:34:32.982Z,33.90
2022-07-29T19:37:01.977Z,34.15
2022-07-29T19:43:50.562Z,34.39
2022-07-29T19:46:23.122Z,34.40
2022-07-29T19:48:52.658Z,34.59
2022-07-29T19:51:24.698Z,34.63
2022-07-29T19:53:54.578Z,34.76
2022-07-29T19:56:26.658Z,34.86
2022-07-29T19:58:55.288Z,34.94
2022-07-29T20:01:24.644Z,35.16
2022-07-29T20:03:54.278Z,35.26
2022-07-29T20:06:22.930Z,35.32
2022-07-29T20:09:05.239Z,35.43
2022-07-29T20:11:56.311Z,35.52
2022-07-29T20:15:37.462Z,35.60
2022-07-29T20:18:18.129Z,35.73
2022-07-29T20:21:17.460Z,35.88
2022-07-29T20:23:45.830Z,35.97
2022-07-29T20:28:01.869Z,36.24
2022-07-29T20:31:35.461Z,36.37
2022-07-29T20:34:42.438Z,36.56
2022-07-29T20:38:23.730Z,36.61
2022-07-29T20:45:28.820Z,36.90
2022-07-29T20:48:50.930Z,37.10
2022-07-29T20:51:31.154Z,37.16
2022-07-29T20:54:32.576Z,37.16
2022-07-29T20:57:49.731Z,37.36
2022-07-29T21:17:01.482Z,38.13
2022-07-29T21:20:48.508Z,38.28
2022-07-29T21:24:05.710Z,38.42
2022-07-29T21:27:11.049Z,38.50
2022-07-29T21:31:09.770Z,38.61
2022-07-29T21:37:54.324Z,38.93
2022-07-29T21:40:59.355Z,39.01
2022-07-29T21:44:31.117Z,39.16
2022-07-29T21:47:54.194Z,39.20
2022-07-29T21:51:04.081Z,39.24
2022-07-29T21:53:46.852Z,39.28
2022-07-29T21:56:16.238Z,39.45
2022-07-29T21:58:54.183Z,39.42
2022-07-29T22:01:23.910Z,39.66
2022-07-29T22:03:58.929Z,39.61
2022-07-29T22:07:07.018Z,39.70
2022-07-29T22:11:24.151Z,39.94
2022-07-29T22:14:03.662Z,40.05
2022-07-29T22:16:34.279Z,40.21
2022-07-29T22:19:06.558Z,40.22
2022-07-29T22:21:37.192Z,40.30
2022-07-29T22:24:35.499Z,40.26
2022-07-29T22:28:14.069Z,40.55
2022-07-29T22:30:52.094Z,40.61
2022-07-29T22:33:39.045Z,40.67
2022-07-29T22:36:09.513Z,40.60
2022-07-29T22:38:41.849Z,40.72
2022-07-29T22:41:50.107Z,40.84
2022-07-29T22:44:59.671Z,40.95
2022-07-29T22:48:48.413Z,40.94
2022-07-29T22:51:42.214Z,41.22
2022-07-29T22:54:56.823Z,41.27
2022-07-29T22:57:48.504Z,41.55
2022-07-29T23:00:42.426Z,41.51
2022-07-29T23:07:36.070Z,41.70
2022-07-29T23:10:32.962Z,41.82
2022-07-29T23:13:26.764Z,41.97
2022-07-29T23:16:26.122Z,42.06
2022-07-29T23:19:38.368Z,42.09
2022-07-29T23:23:07.545Z,42.22
2022-07-29T23:25:40.710Z,42.21
2022-07-29T23:28:25.806Z,42.31
2022-07-29T23:31:00.427Z,42.39
2022-07-29T23:33:41.746Z,42.47
2022-07-29T23:36:13.958Z,42.59
2022-07-29T23:40:02.973Z,42.65
2022-07-29T23:42:53.819Z,42.66
2022-07-29T23:45:40.043Z,42.82
2022-07-29T23:48:16.786Z,43.01
2022-07-29T23:50:52.653Z,42.95
2022-07-29T23:53:23.879Z,43.01
2022-07-29T23:55:54.983Z,43.07
2022-07-29T23:58:23.326Z,43.20
